createdAt,value
2022-11-05T00:00:45.050Z,81.50
2022-11-05T00:03:30.504Z,81.80
2022-11-05T00:06:15.949Z,82.60
2022-11-05T00:09:01.520Z,81.40
2022-11-05T00:11:44.732Z,81.30
2022-11-05T00:14:30.543Z,82.00
2022-11-05T00:16:58.422Z,82.50
2022-11-05T00:19:26.273Z,82.30
2022-11-05T00:22:11.659Z,82.30
2022-11-05T00:24:57.239Z,83.20
2022-11-05T00:27:26.474Z,83.40
2022-11-05T00:29:54.330Z,82.20
2022-11-05T00:32:22.189Z,83.50
2022-11-05T00:34:50.117Z,83.70
2022-11-05T00:37:18.024Z,84.20
2022-11-05T00:39:45.879Z,83.80
2022-11-05T00:42:31.270Z,83.20
2022-11-05T00:45:01.844Z,82.90
2022-11-05T00:47:47.659Z,82.80
2022-11-05T00:50:15.589Z,82.20
2022-11-05T00:52:59.658Z,81.90
2022-11-05T00:55:39.102Z,82.60
2022-11-05T00:58:08.506Z,82.60
2022-11-05T01:00:39.551Z,82.90
2022-11-05T01:03:10.256Z,82.00
2022-11-05T01:05:41.603Z,81.80
2022-11-05T01:08:09.961Z,81.60
2022-11-05T01:10:41.794Z,81.70
2022-11-05T01:13:12.921Z,82.00
2022-11-05T01:15:43.150Z,82.40
2022-11-05T01:18:11.225Z,82.40
2022-11-05T01:20:39.607Z,82.10
2022-11-05T01:23:12.135Z,82.10
2022-11-05T01:25:41.619Z,81.80
2022-11-05T01:28:09.885Z,82.10
2022-11-05T01:30:37.987Z,82.80
2022-11-05T01:33:07.203Z,83.00
2022-11-05T01:35:35.122Z,83.20
2022-11-05T01:38:03.025Z,83.30
2022-11-05T01:40:30.904Z,83.10
2022-11-05T01:42:58.756Z,83.00
2022-11-05T01:45:27.964Z,82.30
2022-11-05T01:48:04.233Z,82.00
2022-11-05T01:50:38.288Z,81.80
2022-11-05T01:53:11.727Z,81.80
2022-11-05T01:55:43.998Z,81.80
2022-11-05T01:58:15.308Z,83.00
2022-11-05T02:00:43.966Z,83.20
2022-11-05T02:03:15.165Z,82.90
2022-11-05T02:05:45.286Z,82.80
2022-11-05T02:08:23.491Z,82.80
2022-11-05T02:10:51.907Z,83.10
2022-11-05T02:13:19.878Z,82.80
2022-11-05T02:15:59.503Z,82.50
2022-11-05T02:18:39.716Z,81.90
2022-11-05T02:21:44.852Z,81.90
2022-11-05T02:24:37.437Z,81.90
2022-11-05T02:27:21.835Z,81.60
2022-11-05T02:30:10.541Z,81.80
2022-11-05T02:32:58.613Z,81.80
2022-11-05T02:36:01.547Z,81.80
2022-11-05T02:38:38.403Z,81.80
2022-11-05T02:41:11.969Z,82.60
2022-11-05T02:43:49.446Z,82.40
2022-11-05T02:46:28.837Z,82.90
2022-11-05T02:49:05.832Z,83.10
2022-11-05T02:51:38.155Z,83.10
2022-11-05T02:54:14.459Z,82.80
2022-11-05T02:56:46.236Z,82.80
2022-11-05T02:59:14.131Z,83.00
2022-11-05T03:01:44.854Z,83.00
2022-11-05T03:04:17.295Z,82.60
2022-11-05T03:07:18.106Z,83.30
2022-11-05T03:10:05.003Z,82.70
2022-11-05T03:12:40.228Z,83.20
2022-11-05T03:15:17.632Z,83.90
2022-11-05T03:17:56.417Z,83.70
2022-11-05T03:20:30.118Z,83.50
2022-11-05T03:23:06.798Z,83.20
2022-11-05T03:25:40.983Z,83.30
2022-11-05T03:28:11.279Z,83.20
2022-11-05T03:30:41.988Z,82.90
2022-11-05T03:33:14.445Z,82.70
2022-11-05T03:35:48.794Z,83.20
2022-11-05T03:38:21.460Z,82.10
2022-11-05T03:40:53.689Z,81.70
2022-11-05T03:43:23.988Z,82.30
2022-11-05T03:45:57.390Z,82.00
2022-11-05T03:48:28.372Z,82.50
2022-11-05T03:51:02.191Z,82.90
2022-11-05T03:53:33.174Z,82.90
2022-11-05T03:56:04.472Z,83.20
2022-11-05T03:58:32.714Z,82.00
2022-11-05T04:01:02.049Z,82.00
2022-11-05T04:03:36.079Z,82.30
2022-11-05T04:06:23.450Z,82.90
2022-11-05T04:09:09.084Z,83.10
2022-11-05T04:11:54.867Z,83.20
2022-11-05T04:14:22.766Z,83.10
2022-11-05T04:17:09.506Z,82.80
2022-11-05T04:19:55.883Z,82.10
2022-11-05T04:22:44.108Z,81.60
2022-11-05T04:25:12.726Z,81.50
2022-11-05T04:27:40.959Z,81.50
2022-11-05T04:30:20.875Z,82.30
2022-11-05T04:33:04.168Z,82.80
2022-11-05T04:35:34.297Z,82.10
2022-11-05T04:38:04.838Z,82.00
2022-11-05T04:40:32.847Z,82.00
2022-11-05T04:43:01.040Z,82.00
2022-11-05T04:45:34.337Z,82.00
2022-11-05T04:48:02.267Z,82.60
2022-11-05T04:50:30.426Z,82.60
2022-11-05T04:52:58.753Z,82.10
2022-11-05T04:55:28.472Z,82.40
2022-11-05T04:57:56.753Z,81.90
2022-11-05T05:00:25.519Z,81.90
2022-11-05T05:02:53.473Z,81.90
2022-11-05T05:05:23.092Z,82.10
2022-11-05T05:07:51.063Z,82.40
2022-11-05T05:10:19.132Z,82.40
2022-11-05T05:12:48.522Z,82.30
2022-11-05T05:15:16.590Z,82.50
2022-11-05T05:17:44.527Z,82.90
2022-11-05T05:20:30.177Z,82.30
2022-11-05T05:22:58.187Z,81.80
2022-11-05T05:25:26.139Z,81.80
2022-11-05T05:27:57.637Z,81.80
2022-11-05T05:30:25.761Z,81.70
2022-11-05T05:32:53.691Z,81.70
2022-11-05T05:35:21.621Z,81.50
2022-11-05T05:37:49.536Z,81.60
2022-11-05T05:40:17.585Z,81.80
2022-11-05T05:42:45.536Z,79.50
2022-11-05T05:45:14.889Z,80.40
2022-11-05T05:47:42.848Z,80.10
2022-11-05T05:50:10.820Z,79.50
2022-11-05T05:52:38.765Z,79.90
2022-11-05T05:55:07.437Z,80.80
2022-11-05T05:57:35.533Z,79.60
2022-11-05T06:00:03.817Z,79.50
2022-11-05T06:02:33.350Z,80.30
2022-11-05T06:05:01.493Z,81.10
2022-11-05T06:07:33.105Z,81.10
2022-11-05T06:10:07.019Z,79.10
2022-11-05T06:12:35.077Z,77.00
2022-11-05T06:15:03.008Z,77.20
2022-11-05T06:17:30.940Z,78.50
2022-11-05T06:20:00.212Z,78.90
2022-11-05T06:22:28.115Z,79.70
2022-11-05T06:24:56.015Z,80.40
2022-11-05T06:27:23.947Z,80.30
2022-11-05T06:29:51.868Z,79.20
2022-11-05T06:32:19.880Z,78.60
2022-11-05T06:34:47.855Z,79.70
2022-11-05T06:37:17.450Z,80.50
2022-11-05T06:39:45.499Z,80.60
2022-11-05T06:42:20.550Z,81.90
2022-11-05T06:44:48.490Z,82.10
2022-11-05T06:47:16.533Z,82.40
2022-11-05T06:49:44.501Z,82.60
2022-11-05T06:52:12.597Z,82.60
2022-11-05T06:54:42.755Z,82.50
2022-11-05T06:57:11.712Z,82.20
2022-11-05T06:59:40.341Z,82.40
2022-11-05T07:02:11.069Z,82.50
2022-11-05T07:04:39.125Z,81.20
2022-11-05T07:07:07.081Z,80.80
2022-11-05T07:09:38.446Z,79.40
2022-11-05T07:12:08.638Z,79.70
2022-11-05T07:14:36.592Z,79.60
2022-11-05T07:17:04.714Z,79.50
2022-11-05T07:19:32.742Z,79.70
2022-11-05T07:22:01.245Z,80.10
2022-11-05T07:24:29.331Z,80.70
2022-11-05T07:26:57.351Z,80.60
2022-11-05T07:29:26.699Z,80.60
2022-11-05T07:31:54.660Z,80.60
2022-11-05T07:34:22.579Z,80.50
2022-11-05T07:36:50.615Z,80.80
2022-11-05T07:39:18.590Z,81.50
2022-11-05T07:41:46.536Z,81.20
2022-11-05T07:44:14.553Z,80.80
2022-11-05T07:46:43.886Z,81.80
2022-11-05T07:49:11.811Z,81.00
2022-11-05T07:51:39.869Z,80.00
2022-11-05T07:54:07.834Z,80.50
2022-11-05T07:56:35.877Z,80.00
2022-11-05T07:59:03.833Z,79.80
2022-11-05T08:01:32.083Z,80.10
2022-11-05T08:04:01.550Z,81.00
2022-11-05T08:06:29.461Z,81.10
2022-11-05T08:08:57.398Z,82.10
2022-11-05T08:11:25.308Z,82.20
2022-11-05T08:13:54.409Z,81.90
2022-11-05T08:16:22.345Z,82.10
2022-11-05T08:18:50.295Z,82.00
2022-11-05T08:21:19.747Z,82.00
2022-11-05T08:23:47.667Z,81.10
2022-11-05T08:26:15.596Z,81.70
2022-11-05T08:28:43.558Z,82.60
2022-11-05T08:31:11.527Z,82.40
2022-11-05T08:33:39.455Z,82.20
2022-11-05T08:36:07.905Z,83.80
2022-11-05T08:38:37.345Z,83.40
2022-11-05T08:41:05.694Z,82.70
2022-11-05T08:43:33.612Z,81.60
2022-11-05T08:46:02.308Z,81.20
2022-11-05T08:48:30.248Z,80.10
2022-11-05T08:51:01.728Z,79.40
2022-11-05T08:53:29.657Z,79.20
2022-11-05T08:56:00.618Z,79.10
2022-11-05T08:58:28.603Z,79.70
2022-11-05T09:01:01.806Z,77.70
2022-11-05T09:03:32.566Z,77.00
2022-11-05T09:06:00.509Z,75.40
2022-11-05T09:08:28.445Z,74.00
2022-11-05T09:10:56.499Z,72.00
2022-11-05T09:13:26.374Z,73.20
2022-11-05T09:15:54.942Z,72.70
2022-11-05T09:18:22.906Z,72.00
2022-11-05T09:20:50.849Z,72.00
2022-11-05T09:23:19.677Z,72.10
2022-11-05T09:25:47.952Z,72.30
2022-11-05T09:28:18.092Z,69.60
2022-11-05T09:30:49.360Z,69.90
2022-11-05T09:33:18.061Z,69.70
2022-11-05T09:35:46.131Z,68.20
2022-11-05T09:38:14.218Z,68.80
2022-11-05T09:40:47.164Z,69.00
2022-11-05T09:43:20.610Z,67.90
2022-11-05T09:45:53.022Z,66.10
2022-11-05T09:48:25.740Z,65.00
2022-11-05T09:50:54.889Z,65.30
2022-11-05T09:53:25.460Z,64.90
2022-11-05T09:55:56.189Z,65.30
2022-11-05T09:58:32.728Z,65.80
2022-11-05T10:01:02.282Z,62.90
2022-11-05T10:03:31.456Z,62.50
2022-11-05T10:06:09.709Z,64.70
2022-11-05T10:08:42.636Z,61.80
2022-11-05T10:11:16.722Z,62.80
2022-11-05T10:13:48.448Z,62.40
2022-11-05T10:16:24.858Z,60.50
2022-11-05T10:18:58.321Z,60.80
2022-11-05T10:21:51.313Z,59.70
2022-11-05T10:24:17.329Z,57.10
2022-11-05T10:26:47.545Z,56.50
2022-11-05T10:29:21.364Z,57.20
2022-11-05T10:31:51.417Z,56.90
2022-11-05T10:34:21.070Z,57.10
2022-11-05T10:36:49.353Z,57.30
2022-11-05T10:39:20.101Z,57.60
2022-11-05T10:42:20.870Z,56.50
2022-11-05T10:44:57.854Z,56.40
2022-11-05T10:47:43.883Z,56.60
2022-11-05T10:50:13.858Z,54.70
2022-11-05T10:52:54.850Z,54.10
2022-11-05T10:55:26.183Z,54.50
2022-11-05T10:57:54.750Z,55.10
2022-11-05T11:00:26.348Z,55.20
2022-11-05T11:02:58.172Z,54.10
2022-11-05T11:05:29.563Z,54.30
2022-11-05T11:08:01.624Z,53.20
2022-11-05T11:10:31.968Z,53.30
2022-11-05T11:12:59.997Z,52.50
2022-11-05T11:15:32.526Z,51.50
2022-11-05T11:18:25.076Z,50.80
2022-11-05T11:20:53.046Z,50.50
2022-11-05T11:23:21.059Z,48.00
2022-11-05T11:25:52.781Z,48.70
2022-11-05T11:28:24.810Z,48.30
2022-11-05T11:31:01.916Z,45.70
2022-11-05T11:33:32.623Z,45.40
2022-11-05T11:36:00.965Z,46.10
2022-11-05T11:38:32.027Z,44.60
2022-11-05T11:41:17.756Z,42.70
2022-11-05T11:43:46.272Z,43.30
2022-11-05T11:46:17.347Z,43.60
2022-11-05T11:48:48.497Z,44.20
2022-11-05T11:51:19.937Z,43.10
2022-11-05T11:53:50.341Z,42.50
2022-11-05T11:56:20.710Z,41.20
2022-11-05T11:58:50.926Z,42.30
2022-11-05T12:01:43.380Z,42.30
2022-11-05T12:04:35.673Z,41.70
2022-11-05T12:07:15.052Z,41.50
2022-11-05T12:09:59.320Z,42.50
2022-11-05T12:12:33.323Z,43.20
2022-11-05T12:15:16.313Z,45.40
2022-11-05T12:17:51.144Z,46.50
2022-11-05T12:20:35.425Z,45.80
2022-11-05T12:23:36.802Z,45.30
2022-11-05T12:26:12.797Z,45.20
2022-11-05T12:29:17.993Z,44.40
2022-11-05T12:31:57.499Z,45.20
2022-11-05T12:34:38.155Z,45.80
2022-11-05T12:37:16.534Z,46.10
2022-11-05T12:39:53.884Z,46.30
2022-11-05T12:42:35.993Z,47.20
2022-11-05T12:45:11.273Z,46.90
2022-11-05T12:47:50.564Z,47.60
2022-11-05T12:50:31.637Z,48.40
2022-11-05T12:53:24.612Z,49.00
2022-11-05T12:55:53.784Z,49.60
2022-11-05T12:58:26.536Z,49.70
2022-11-05T13:01:00.262Z,51.00
2022-11-05T13:03:37.291Z,51.00
2022-11-05T13:06:11.147Z,49.90
2022-11-05T13:08:46.129Z,48.10
2022-11-05T13:11:20.112Z,45.50
2022-11-05T13:13:54.354Z,44.60
2022-11-05T13:16:28.198Z,44.60
2022-11-05T13:19:00.147Z,44.30
2022-11-05T13:21:30.423Z,45.40
2022-11-05T13:24:06.933Z,45.90
2022-11-05T13:26:39.308Z,46.60
2022-11-05T13:29:12.634Z,47.30
2022-11-05T13:31:44.521Z,46.70
2022-11-05T13:34:13.997Z,46.50
2022-11-05T13:37:11.749Z,45.40
2022-11-05T13:39:47.964Z,45.00
2022-11-05T13:42:48.929Z,43.90
2022-11-05T13:45:37.390Z,44.10
2022-11-05T13:48:38.579Z,44.90
2022-11-05T13:51:34.807Z,44.60
2022-11-05T13:54:45.037Z,45.70
2022-11-05T13:57:42.664Z,45.80
2022-11-05T14:00:17.259Z,46.00
2022-11-05T14:02:49.134Z,45.30
2022-11-05T14:05:28.638Z,45.90
2022-11-05T14:07:58.033Z,45.40
2022-11-05T14:10:36.641Z,44.50
2022-11-05T14:13:18.146Z,45.10
2022-11-05T14:16:02.520Z,45.10
2022-11-05T14:18:39.961Z,44.90
2022-11-05T14:21:32.895Z,44.30
2022-11-05T14:24:19.051Z,43.50
2022-11-05T14:27:25.368Z,44.00
2022-11-05T14:29:54.642Z,43.80
2022-11-05T14:32:27.679Z,43.40
2022-11-05T14:35:05.524Z,43.00
2022-11-05T14:37:36.979Z,43.00
2022-11-05T14:40:32.606Z,42.20
2022-11-05T14:43:02.611Z,42.20
2022-11-05T14:45:35.912Z,41.90
2022-11-05T14:48:07.148Z,41.40
2022-11-05T14:50:38.130Z,41.70
2022-11-05T14:53:26.016Z,41.20
2022-11-05T14:56:00.916Z,41.60
2022-11-05T14:58:37.234Z,41.80
2022-11-05T15:01:08.395Z,42.10
2022-11-05T15:04:06.751Z,42.80
2022-11-05T15:06:36.498Z,43.50
2022-11-05T15:09:19.625Z,44.10
2022-11-05T15:12:00.480Z,45.20
2022-11-05T15:14:33.401Z,46.20
2022-11-05T15:17:15.135Z,47.10
2022-11-05T15:19:44.077Z,47.40
2022-11-05T15:22:22.384Z,48.30
2022-11-05T15:24:50.597Z,48.70
2022-11-05T15:27:27.344Z,50.20
2022-11-05T15:29:55.327Z,51.00
2022-11-05T15:32:28.016Z,53.20
2022-11-05T15:34:56.880Z,55.30
2022-11-05T15:37:27.388Z,55.20
2022-11-05T15:39:56.217Z,55.50
2022-11-05T15:42:25.644Z,55.80
2022-11-05T15:44:55.269Z,56.60
2022-11-05T15:47:26.517Z,56.30
2022-11-05T15:49:56.396Z,57.20
2022-11-05T15:52:26.596Z,57.70
2022-11-05T15:55:20.008Z,58.50
2022-11-05T15:57:51.204Z,58.40
2022-11-05T16:00:21.948Z,58.90
2022-11-05T16:02:58.206Z,57.90
2022-11-05T16:05:27.857Z,58.60
2022-11-05T16:07:59.432Z,58.90
2022-11-05T16:10:31.109Z,58.30
2022-11-05T16:13:19.138Z,58.90
2022-11-05T16:15:56.060Z,59.10
2022-11-05T16:18:26.682Z,60.00
2022-11-05T16:21:02.168Z,60.50
2022-11-05T16:23:42.631Z,61.00
2022-11-05T16:29:30.342Z,62.60
2022-11-05T16:32:01.777Z,62.60
2022-11-05T16:34:34.328Z,63.20
2022-11-05T16:37:02.363Z,64.50
2022-11-05T16:39:30.324Z,65.20
2022-11-05T16:41:58.303Z,65.10
2022-11-05T16:44:26.472Z,65.40
2022-11-05T16:46:54.614Z,65.30
2022-11-05T16:49:23.903Z,65.20
2022-11-05T16:51:51.950Z,65.20
2022-11-05T16:54:19.856Z,65.10
2022-11-05T16:56:47.778Z,65.50
2022-11-05T16:59:15.687Z,65.80
2022-11-05T17:01:44.513Z,65.80
2022-11-05T17:04:14.087Z,65.50
2022-11-05T17:06:43.750Z,65.90
2022-11-05T17:09:11.635Z,65.90
2022-11-05T17:11:39.547Z,65.80
2022-11-05T17:14:09.343Z,66.00
2022-11-05T17:16:39.554Z,65.00
2022-11-05T17:19:07.465Z,65.40
2022-11-05T17:21:36.638Z,65.50
2022-11-05T17:24:06.642Z,65.40
2022-11-05T17:26:34.742Z,65.50
2022-11-05T17:29:02.703Z,65.40
2022-11-05T17:31:30.646Z,65.20
2022-11-05T17:33:58.583Z,65.40
2022-11-05T17:36:27.218Z,65.80
2022-11-05T17:38:55.270Z,66.30
2022-11-05T17:41:25.376Z,66.60
2022-11-05T17:43:56.275Z,67.30
2022-11-05T17:46:25.128Z,67.30
2022-11-05T17:48:53.079Z,67.30
2022-11-05T17:51:21.322Z,67.30
2022-11-05T17:53:50.097Z,67.30
2022-11-05T17:56:30.578Z,68.30
2022-11-05T17:59:02.729Z,69.10
2022-11-05T18:01:32.895Z,69.00
2022-11-05T18:04:07.247Z,69.70
2022-11-05T18:06:36.597Z,70.00
2022-11-05T18:09:05.203Z,69.40
2022-11-05T18:11:33.222Z,69.30
2022-11-05T18:14:02.694Z,69.70
2022-11-05T18:16:30.897Z,67.90
2022-11-05T18:18:58.850Z,67.20
2022-11-05T18:21:26.931Z,68.50
2022-11-05T18:23:54.863Z,69.10
2022-11-05T18:26:22.803Z,69.30
2022-11-05T18:28:50.729Z,69.10
2022-11-05T18:31:21.986Z,69.40
2022-11-05T18:33:51.261Z,69.90
2022-11-05T18:36:20.131Z,70.20
2022-11-05T18:38:48.212Z,69.90
2022-11-05T18:41:16.345Z,69.30
2022-11-05T18:43:44.556Z,70.40
2022-11-05T18:46:29.398Z,70.80
2022-11-05T18:49:02.487Z,70.60
2022-11-05T18:51:30.580Z,71.20
2022-11-05T18:53:58.481Z,71.20
2022-11-05T18:56:26.457Z,71.40
2022-11-05T18:59:21.827Z,70.80
2022-11-05T19:01:43.017Z,70.70
2022-11-05T19:04:12.691Z,69.70
2022-11-05T19:06:41.377Z,69.60
2022-11-05T19:09:12.051Z,69.20
2022-11-05T19:11:40.937Z,68.60
2022-11-05T19:14:09.033Z,69.00
2022-11-05T19:16:37.142Z,69.10
2022-11-05T19:19:06.829Z,69.70
2022-11-05T19:21:36.100Z,70.20
2022-11-05T19:24:04.635Z,71.30
2022-11-05T19:26:32.656Z,70.60
2022-11-05T19:29:01.756Z,71.10
2022-11-05T19:31:30.868Z,70.80
2022-11-05T19:33:58.792Z,70.00
2022-11-05T19:36:27.162Z,69.50
2022-11-05T19:38:58.440Z,67.60
2022-11-05T19:41:27.057Z,68.60
2022-11-05T19:43:57.848Z,69.90
2022-11-05T19:46:26.461Z,67.90
2022-11-05T19:48:54.902Z,68.80
2022-11-05T19:51:25.799Z,70.00
2022-11-05T19:53:55.233Z,69.40
2022-11-05T19:56:26.457Z,68.30
2022-11-05T19:58:55.084Z,67.70
2022-11-05T20:01:25.333Z,68.80
2022-11-05T20:03:54.860Z,69.90
2022-11-05T20:06:25.698Z,70.00
2022-11-05T20:09:19.911Z,70.30
2022-11-05T20:11:45.007Z,70.60
2022-11-05T20:14:13.043Z,70.90
2022-11-05T20:16:42.279Z,70.90
2022-11-05T20:19:13.492Z,70.90
2022-11-05T20:21:41.880Z,70.90
2022-11-05T20:24:10.878Z,71.50
2022-11-05T20:26:38.865Z,72.00
2022-11-05T20:29:08.568Z,72.80
2022-11-05T20:31:36.474Z,72.30
2022-11-05T20:34:04.364Z,71.90
2022-11-05T20:36:32.336Z,71.10
2022-11-05T20:39:02.237Z,70.70
2022-11-05T20:41:30.636Z,70.00
2022-11-05T20:43:58.597Z,69.20
2022-11-05T20:46:28.481Z,69.10
2022-11-05T20:48:56.640Z,70.30
2022-11-05T20:51:25.407Z,70.80
2022-11-05T20:53:55.972Z,71.40
2022-11-05T20:56:25.716Z,72.30
2022-11-05T20:58:53.954Z,72.20
2022-11-05T21:01:22.097Z,72.40
2022-11-05T21:03:51.485Z,72.60
2022-11-05T21:06:19.423Z,72.40
2022-11-05T21:08:48.869Z,72.60
2022-11-05T21:11:17.036Z,72.80
2022-11-05T21:13:45.220Z,72.30
2022-11-05T21:16:18.079Z,72.60
2022-11-05T21:18:46.682Z,71.10
2022-11-05T21:21:19.315Z,71.00
2022-11-05T21:23:47.307Z,71.40
2022-11-05T21:26:17.913Z,71.70
2022-11-05T21:28:45.877Z,72.30
2022-11-05T21:31:13.859Z,72.90
2022-11-05T21:33:42.147Z,72.80
2022-11-05T21:36:12.225Z,71.00
2022-11-05T21:38:42.394Z,71.20
2022-11-05T21:41:12.367Z,70.50
2022-11-05T21:43:41.721Z,70.50
2022-11-05T21:46:11.455Z,71.40
2022-11-05T21:48:39.426Z,72.10
2022-11-05T21:51:25.022Z,72.60
2022-11-05T21:54:11.951Z,72.60
2022-11-05T21:56:59.637Z,71.80
2022-11-05T21:59:45.121Z,70.90
2022-11-05T22:02:14.869Z,70.10
2022-11-05T22:04:44.374Z,70.00
2022-11-05T22:07:14.483Z,70.00
2022-11-05T22:09:44.134Z,69.80
2022-11-05T22:12:12.097Z,70.40
2022-11-05T22:14:40.122Z,70.50
2022-11-05T22:17:08.574Z,71.50
2022-11-05T22:19:37.377Z,71.50
2022-11-05T22:22:06.146Z,71.70
2022-11-05T22:24:34.247Z,71.10
2022-11-05T22:27:05.402Z,71.10
2022-11-05T22:29:33.564Z,71.60
2022-11-05T22:32:01.596Z,72.30
2022-11-05T22:34:29.537Z,72.60
2022-11-05T22:36:57.533Z,72.00
2022-11-05T22:39:25.768Z,71.90
2022-11-05T22:41:55.049Z,71.10
2022-11-05T22:44:25.692Z,72.00
2022-11-05T22:46:54.501Z,72.40
2022-11-05T22:49:22.620Z,71.60
2022-11-05T22:51:50.676Z,71.20
2022-11-05T22:54:18.891Z,70.10
2022-11-05T22:56:46.897Z,70.10
2022-11-05T22:59:16.117Z,70.00
2022-11-05T23:01:46.292Z,69.40
2022-11-05T23:04:15.140Z,69.90
2022-11-05T23:07:01.074Z,69.90
2022-11-05T23:09:48.063Z,70.60
2022-11-05T23:12:25.148Z,71.10
2022-11-05T23:14:53.448Z,71.10
2022-11-05T23:17:39.962Z,71.80
2022-11-05T23:20:29.749Z,72.30
2022-11-05T23:23:15.298Z,72.50
2022-11-05T23:25:43.756Z,72.50
2022-11-05T23:28:12.439Z,72.30
2022-11-05T23:31:05.131Z,72.90
2022-11-05T23:33:35.402Z,72.40
2022-11-05T23:36:20.966Z,71.10
2022-11-05T23:38:48.915Z,71.10
2022-11-05T23:41:34.407Z,69.70
2022-11-05T23:44:19.988Z,69.80
2022-11-05T23:47:05.510Z,69.70
2022-11-05T23:49:34.951Z,69.60
2022-11-05T23:52:02.877Z,70.80
2022-11-05T23:54:30.774Z,71.10
2022-11-05T23:56:58.689Z,71.50
2022-11-05T23:59:26.701Z,72.20
